Comox, Canada
Current Conditions -  °F | °C
As of 11:00 AM on Friday 28 Nov 2014 (Local Time) from CYQQ Reporting Station
Few Clouds Few Clouds  
Wind Chill: 33°   Ceiling: Unl
Heat Index: 41°   Visibility: 20mi
Dew Point: 30°   Wind: 14mph
Humidity: 65%   Direction: 320°NW
Pressure: 29.55"   Gusts: NA
Location:  49.67°N, 124.93°W
Report Text: CYQQ 281900Z 32012KT 20SM FEW030 FEW100 05/M01 A2955 RMK CU1AC1 SLP009
Loading
Personal Weather Stations






























Interactive Weather Map New forecast layout! Learn more

10-Day Weather Forecast

Advertisements
Track Severe Weather on mobile